sensor_id;sensor_type;location;lat;lon;timestamp;temperature;humidity
9915;DHT22;4996;48.746;9.174;2023-08-01T00:01:49;19.20;99.90
9915;DHT22;4996;48.746;9.174;2023-08-01T00:04:15;19.20;99.90
9915;DHT22;4996;48.746;9.174;2023-08-01T00:06:41;19.20;99.90
9915;DHT22;4996;48.746;9.174;2023-08-01T00:09:07;19.20;99.90
9915;DHT22;4996;48.746;9.174;2023-08-01T00:11:32;19.10;99.90
9915;DHT22;4996;48.746;9.174;2023-08-01T00:13:58;19.10;99.90
9915;DHT22;4996;48.746;9.174;2023-08-01T00:16:24;19.10;99.90
9915;DHT22;4996;48.746;9.174;2023-08-01T00:18:49;19.10;99.90
9915;DHT22;4996;48.746;9.174;2023-08-01T00:21:15;19.20;99.90
9915;DHT22;4996;48.746;9.174;2023-08-01T00:23:41;19.20;99.90
9915;DHT22;4996;48.746;9.174;2023-08-01T00:26:06;19.10;99.90
9915;DHT22;4996;48.746;9.174;2023-08-01T00:28:32;19.10;99.90
9915;DHT22;4996;48.746;9.174;2023-08-01T00:31:02;19.20;99.90
9915;DHT22;4996;48.746;9.174;2023-08-01T00:33:28;19.20;99.90
9915;DHT22;4996;48.746;9.174;2023-08-01T00:35:53;19.10;99.90
9915;DHT22;4996;48.746;9.174;2023-08-01T00:38:19;19.10;99.90
9915;DHT22;4996;48.746;9.174;2023-08-01T00:40:45;19.10;99.90
9915;DHT22;4996;48.746;9.174;2023-08-01T00:43:10;19.20;99.90
9915;DHT22;4996;48.746;9.174;2023-08-01T00:45:36;19.30;99.90
9915;DHT22;4996;48.746;9.174;2023-08-01T00:48:01;19.00;99.90
9915;DHT22;4996;48.746;9.174;2023-08-01T00:50:27;19.10;99.90
9915;DHT22;4996;48.746;9.174;2023-08-01T00:52:53;19.10;99.90
9915;DHT22;4996;48.746;9.174;2023-08-01T00:55:18;19.10;99.90
9915;DHT22;4996;48.746;9.174;2023-08-01T00:57:44;19.10;99.90
9915;DHT22;4996;48.746;9.174;2023-08-01T01:00:10;19.20;99.90
9915;DHT22;4996;48.746;9.174;2023-08-01T01:02:36;19.20;99.90
9915;DHT22;4996;48.746;9.174;2023-08-01T01:05:03;19.20;99.90
9915;DHT22;4996;48.746;9.174;2023-08-01T01:07:29;19.30;99.90
9915;DHT22;4996;48.746;9.174;2023-08-01T01:09:56;19.20;99.90
9915;DHT22;4996;48.746;9.174;2023-08-01T01:12:21;19.10;99.90
9915;DHT22;4996;48.746;9.174;2023-08-01T01:14:47;19.10;99.90
9915;DHT22;4996;48.746;9.174;2023-08-01T01:17:12;19.10;99.90
9915;DHT22;4996;48.746;9.174;2023-08-01T01:19:38;19.00;99.90
9915;DHT22;4996;48.746;9.174;2023-08-01T01:22:04;19.00;99.90
9915;DHT22;4996;48.746;9.174;2023-08-01T01:24:32;19.10;99.90
9915;DHT22;4996;48.746;9.174;2023-08-01T01:26:59;19.20;99.90
9915;DHT22;4996;48.746;9.174;2023-08-01T01:29:26;19.30;99.90
9915;DHT22;4996;48.746;9.174;2023-08-01T01:31:52;19.00;99.90
9915;DHT22;4996;48.746;9.174;2023-08-01T01:34:19;18.80;99.90
9915;DHT22;4996;48.746;9.174;2023-08-01T01:36:44;18.80;99.90
9915;DHT22;4996;48.746;9.174;2023-08-01T01:39:10;18.70;99.90
9915;DHT22;4996;48.746;9.174;2023-08-01T01:41:35;18.60;99.90
9915;DHT22;4996;48.746;9.174;2023-08-01T01:44:01;18.60;99.90
9915;DHT22;4996;48.746;9.174;2023-08-01T01:46:27;18.60;99.90
9915;DHT22;4996;48.746;9.174;2023-08-01T01:48:52;18.60;99.90
9915;DHT22;4996;48.746;9.174;2023-08-01T01:51:22;18.50;99.90
9915;DHT22;4996;48.746;9.174;2023-08-01T01:53:48;18.50;99.90
9915;DHT22;4996;48.746;9.174;2023-08-01T01:56:14;18.60;99.90
9915;DHT22;4996;48.746;9.174;2023-08-01T01:58:39;18.60;99.90
9915;DHT22;4996;48.746;9.174;2023-08-01T02:01:05;18.60;99.90
9915;DHT22;4996;48.746;9.174;2023-08-01T02:03:30;18.60;99.90
9915;DHT22;4996;48.746;9.174;2023-08-01T02:05:56;18.60;99.90
9915;DHT22;4996;48.746;9.174;2023-08-01T02:08:21;18.60;99.90
9915;DHT22;4996;48.746;9.174;2023-08-01T02:10:48;18.60;99.90
9915;DHT22;4996;48.746;9.174;2023-08-01T02:13:13;18.70;99.90
9915;DHT22;4996;48.746;9.174;2023-08-01T02:15:39;18.70;99.90
9915;DHT22;4996;48.746;9.174;2023-08-01T02:18:04;18.60;99.90
9915;DHT22;4996;48.746;9.174;2023-08-01T02:20:30;18.50;99.90
9915;DHT22;4996;48.746;9.174;2023-08-01T02:22:55;18.50;99.90
9915;DHT22;4996;48.746;9.174;2023-08-01T02:25:21;18.60;99.90
9915;DHT22;4996;48.746;9.174;2023-08-01T02:27:46;18.70;99.90
9915;DHT22;4996;48.746;9.174;2023-08-01T02:30:11;18.70;99.90
9915;DHT22;4996;48.746;9.174;2023-08-01T02:32:37;18.80;99.90
9915;DHT22;4996;48.746;9.174;2023-08-01T02:35:03;18.70;99.90
9915;DHT22;4996;48.746;9.174;2023-08-01T02:37:28;18.70;99.90
9915;DHT22;4996;48.746;9.174;2023-08-01T02:39:54;18.80;99.90
9915;DHT22;4996;48.746;9.174;2023-08-01T02:42:19;18.80;99.90
9915;DHT22;4996;48.746;9.174;2023-08-01T02:44:45;18.90;99.90
9915;DHT22;4996;48.746;9.174;2023-08-01T02:47:10;18.90;99.90
9915;DHT22;4996;48.746;9.174;2023-08-01T02:49:36;18.90;99.90
9915;DHT22;4996;48.746;9.174;2023-08-01T02:52:01;18.90;99.90
9915;DHT22;4996;48.746;9.174;2023-08-01T02:54:27;18.90;99.90
9915;DHT22;4996;48.746;9.174;2023-08-01T02:56:52;18.90;99.90
9915;DHT22;4996;48.746;9.174;2023-08-01T02:59:18;18.90;99.90
9915;DHT22;4996;48.746;9.174;2023-08-01T03:01:44;18.80;99.90
9915;DHT22;4996;48.746;9.174;2023-08-01T03:04:09;18.80;99.90
9915;DHT22;4996;48.746;9.174;2023-08-01T03:06:37;18.80;99.90
9915;DHT22;4996;48.746;9.174;2023-08-01T03:09:03;18.90;99.90
9915;DHT22;4996;48.746;9.174;2023-08-01T03:11:33;19.00;99.90
9915;DHT22;4996;48.746;9.174;2023-08-01T03:14:00;18.90;99.90
9915;DHT22;4996;48.746;9.174;2023-08-01T03:16:25;18.90;99.90
9915;DHT22;4996;48.746;9.174;2023-08-01T03:18:51;18.90;99.90
9915;DHT22;4996;48.746;9.174;2023-08-01T03:21:16;18.90;99.90
9915;DHT22;4996;48.746;9.174;2023-08-01T03:23:42;19.00;99.90
9915;DHT22;4996;48.746;9.174;2023-08-01T03:26:08;19.00;99.90
9915;DHT22;4996;48.746;9.174;2023-08-01T03:28:33;19.10;99.90
9915;DHT22;4996;48.746;9.174;2023-08-01T03:30:59;19.00;99.90
9915;DHT22;4996;48.746;9.174;2023-08-01T03:33:24;19.00;99.90
9915;DHT22;4996;48.746;9.174;2023-08-01T03:35:50;19.10;99.90
9915;DHT22;4996;48.746;9.174;2023-08-01T03:38:15;18.90;99.90
9915;DHT22;4996;48.746;9.174;2023-08-01T03:40:41;18.80;99.90
9915;DHT22;4996;48.746;9.174;2023-08-01T03:43:06;18.90;99.90
9915;DHT22;4996;48.746;9.174;2023-08-01T03:45:32;19.00;99.90
9915;DHT22;4996;48.746;9.174;2023-08-01T03:47:58;18.90;99.90
9915;DHT22;4996;48.746;9.174;2023-08-01T03:50:24;19.00;99.90
9915;DHT22;4996;48.746;9.174;2023-08-01T03:52:49;19.10;99.90
9915;DHT22;4996;48.746;9.174;2023-08-01T03:55:15;19.10;99.90
9915;DHT22;4996;48.746;9.174;2023-08-01T03:57:42;19.20;99.90
9915;DHT22;4996;48.746;9.174;2023-08-01T04:00:08;19.30;99.90
9915;DHT22;4996;48.746;9.174;2023-08-01T04:02:42;19.20;99.90
9915;DHT22;4996;48.746;9.174;2023-08-01T04:05:08;19.20;99.90
9915;DHT22;4996;48.746;9.174;2023-08-01T04:07:35;19.10;99.90
9915;DHT22;4996;48.746;9.174;2023-08-01T04:10:01;19.20;99.90
9915;DHT22;4996;48.746;9.174;2023-08-01T04:12:28;19.20;99.90
9915;DHT22;4996;48.746;9.174;2023-08-01T04:14:53;19.20;99.90
9915;DHT22;4996;48.746;9.174;2023-08-01T04:17:19;19.00;99.90
9915;DHT22;4996;48.746;9.174;2023-08-01T04:19:44;19.00;99.90
9915;DHT22;4996;48.746;9.174;2023-08-01T04:22:10;18.90;99.90
9915;DHT22;4996;48.746;9.174;2023-08-01T04:24:35;18.90;99.90
9915;DHT22;4996;48.746;9.174;2023-08-01T04:27:01;18.90;99.90
9915;DHT22;4996;48.746;9.174;2023-08-01T04:29:26;18.80;99.90
9915;DHT22;4996;48.746;9.174;2023-08-01T04:31:52;18.80;99.90
9915;DHT22;4996;48.746;9.174;2023-08-01T04:34:18;19.00;99.90
9915;DHT22;4996;48.746;9.174;2023-08-01T04:36:43;19.00;99.90
9915;DHT22;4996;48.746;9.174;2023-08-01T04:39:09;18.90;99.90
9915;DHT22;4996;48.746;9.174;2023-08-01T04:41:34;18.70;99.90
9915;DHT22;4996;48.746;9.174;2023-08-01T04:44:00;18.60;99.90
9915;DHT22;4996;48.746;9.174;2023-08-01T04:46:25;18.60;99.90
9915;DHT22;4996;48.746;9.174;2023-08-01T04:48:51;18.50;99.90
9915;DHT22;4996;48.746;9.174;2023-08-01T04:51:16;18.70;99.90
9915;DHT22;4996;48.746;9.174;2023-08-01T04:53:42;18.80;99.90
9915;DHT22;4996;48.746;9.174;2023-08-01T04:56:07;18.80;99.90
9915;DHT22;4996;48.746;9.174;2023-08-01T04:58:33;18.80;99.90
9915;DHT22;4996;48.746;9.174;2023-08-01T05:00:58;18.80;99.90
9915;DHT22;4996;48.746;9.174;2023-08-01T05:03:24;18.80;99.90
9915;DHT22;4996;48.746;9.174;2023-08-01T05:05:49;18.90;99.90
9915;DHT22;4996;48.746;9.174;2023-08-01T05:08:15;19.00;99.90
9915;DHT22;4996;48.746;9.174;2023-08-01T05:10:40;19.10;99.90
9915;DHT22;4996;48.746;9.174;2023-08-01T05:13:06;19.10;99.90
9915;DHT22;4996;48.746;9.174;2023-08-01T05:15:31;19.10;99.90
9915;DHT22;4996;48.746;9.174;2023-08-01T05:17:57;19.20;99.90
9915;DHT22;4996;48.746;9.174;2023-08-01T05:20:22;19.20;99.90
9915;DHT22;4996;48.746;9.174;2023-08-01T05:22:48;19.20;99.90
9915;DHT22;4996;48.746;9.174;2023-08-01T05:25:13;19.30;99.90
9915;DHT22;4996;48.746;9.174;2023-08-01T05:27:39;19.30;99.90
9915;DHT22;4996;48.746;9.174;2023-08-01T05:30:05;19.30;99.90
9915;DHT22;4996;48.746;9.174;2023-08-01T05:32:30;19.30;99.90
9915;DHT22;4996;48.746;9.174;2023-08-01T05:34:56;19.30;99.90
9915;DHT22;4996;48.746;9.174;2023-08-01T05:37:21;19.40;99.90
9915;DHT22;4996;48.746;9.174;2023-08-01T05:39:47;19.50;99.90
9915;DHT22;4996;48.746;9.174;2023-08-01T05:42:13;19.60;99.90
9915;DHT22;4996;48.746;9.174;2023-08-01T05:44:38;19.60;99.90
9915;DHT22;4996;48.746;9.174;2023-08-01T05:47:04;19.70;99.90
9915;DHT22;4996;48.746;9.174;2023-08-01T05:49:29;19.70;99.90
9915;DHT22;4996;48.746;9.174;2023-08-01T05:51:55;19.80;99.90
9915;DHT22;4996;48.746;9.174;2023-08-01T05:54:21;19.90;99.90
9915;DHT22;4996;48.746;9.174;2023-08-01T05:56:46;19.80;99.90
9915;DHT22;4996;48.746;9.174;2023-08-01T05:59:12;19.80;99.90
9915;DHT22;4996;48.746;9.174;2023-08-01T06:01:37;19.80;99.90
9915;DHT22;4996;48.746;9.174;2023-08-01T06:04:03;19.90;99.90
9915;DHT22;4996;48.746;9.174;2023-08-01T06:06:29;19.80;99.90
9915;DHT22;4996;48.746;9.174;2023-08-01T06:08:54;19.80;99.90
9915;DHT22;4996;48.746;9.174;2023-08-01T06:11:20;19.80;99.90
9915;DHT22;4996;48.746;9.174;2023-08-01T06:13:45;19.90;99.90
9915;DHT22;4996;48.746;9.174;2023-08-01T06:16:11;19.90;99.90
9915;DHT22;4996;48.746;9.174;2023-08-01T06:18:36;20.00;99.90
9915;DHT22;4996;48.746;9.174;2023-08-01T06:21:02;19.90;99.90
9915;DHT22;4996;48.746;9.174;2023-08-01T06:23:27;19.80;99.90
9915;DHT22;4996;48.746;9.174;2023-08-01T06:25:53;19.50;99.90
9915;DHT22;4996;48.746;9.174;2023-08-01T06:28:18;19.50;99.90
9915;DHT22;4996;48.746;9.174;2023-08-01T06:30:45;19.60;99.90
9915;DHT22;4996;48.746;9.174;2023-08-01T06:33:10;19.40;99.90
9915;DHT22;4996;48.746;9.174;2023-08-01T06:35:36;19.40;99.90
9915;DHT22;4996;48.746;9.174;2023-08-01T06:38:02;19.40;99.90
9915;DHT22;4996;48.746;9.174;2023-08-01T06:40:27;19.30;99.90
9915;DHT22;4996;48.746;9.174;2023-08-01T06:42:53;19.40;99.90
9915;DHT22;4996;48.746;9.174;2023-08-01T06:45:18;19.40;99.90
9915;DHT22;4996;48.746;9.174;2023-08-01T06:47:44;19.30;99.90
9915;DHT22;4996;48.746;9.174;2023-08-01T06:50:09;19.10;99.90
9915;DHT22;4996;48.746;9.174;2023-08-01T06:52:35;19.00;99.90
9915;DHT22;4996;48.746;9.174;2023-08-01T06:55:00;19.00;99.90
9915;DHT22;4996;48.746;9.174;2023-08-01T06:57:27;18.90;99.90
9915;DHT22;4996;48.746;9.174;2023-08-01T06:59:52;18.60;99.90
9915;DHT22;4996;48.746;9.174;2023-08-01T07:02:18;18.40;99.90
9915;DHT22;4996;48.746;9.174;2023-08-01T07:04:43;18.30;99.90
9915;DHT22;4996;48.746;9.174;2023-08-01T07:07:09;18.40;99.90
9915;DHT22;4996;48.746;9.174;2023-08-01T07:09:35;18.30;99.90
9915;DHT22;4996;48.746;9.174;2023-08-01T07:12:00;18.20;99.90
9915;DHT22;4996;48.746;9.174;2023-08-01T07:14:26;18.30;99.90
9915;DHT22;4996;48.746;9.174;2023-08-01T07:16:51;18.40;99.90
9915;DHT22;4996;48.746;9.174;2023-08-01T07:19:17;18.30;99.90
9915;DHT22;4996;48.746;9.174;2023-08-01T07:21:42;18.40;99.90
9915;DHT22;4996;48.746;9.174;2023-08-01T07:24:10;18.50;99.90
9915;DHT22;4996;48.746;9.174;2023-08-01T07:26:35;18.30;99.90
9915;DHT22;4996;48.746;9.174;2023-08-01T07:29:01;18.30;99.90
9915;DHT22;4996;48.746;9.174;2023-08-01T07:31:26;18.40;99.90
9915;DHT22;4996;48.746;9.174;2023-08-01T07:33:52;18.20;99.90
9915;DHT22;4996;48.746;9.174;2023-08-01T07:36:17;18.10;99.90
9915;DHT22;4996;48.746;9.174;2023-08-01T07:38:43;18.10;99.90
9915;DHT22;4996;48.746;9.174;2023-08-01T07:41:09;18.20;99.90
9915;DHT22;4996;48.746;9.174;2023-08-01T07:43:34;17.80;99.90
9915;DHT22;4996;48.746;9.174;2023-08-01T07:46:00;17.60;99.90
9915;DHT22;4996;48.746;9.174;2023-08-01T07:48:26;17.60;99.90
9915;DHT22;4996;48.746;9.174;2023-08-01T07:50:52;17.50;99.90
9915;DHT22;4996;48.746;9.174;2023-08-01T07:53:17;17.40;99.90
9915;DHT22;4996;48.746;9.174;2023-08-01T07:55:43;17.30;99.90
9915;DHT22;4996;48.746;9.174;2023-08-01T07:58:08;17.40;99.90
9915;DHT22;4996;48.746;9.174;2023-08-01T08:00:37;17.30;99.90
9915;DHT22;4996;48.746;9.174;2023-08-01T08:03:03;17.10;99.90
9915;DHT22;4996;48.746;9.174;2023-08-01T08:05:28;17.10;99.90
9915;DHT22;4996;48.746;9.174;2023-08-01T08:07:54;17.10;99.90
9915;DHT22;4996;48.746;9.174;2023-08-01T08:10:19;17.10;99.90
9915;DHT22;4996;48.746;9.174;2023-08-01T08:12:45;17.10;99.90
9915;DHT22;4996;48.746;9.174;2023-08-01T08:15:10;17.20;99.90
9915;DHT22;4996;48.746;9.174;2023-08-01T08:17:36;17.10;99.90
9915;DHT22;4996;48.746;9.174;2023-08-01T08:20:02;17.20;99.90
9915;DHT22;4996;48.746;9.174;2023-08-01T08:22:28;17.10;99.90
9915;DHT22;4996;48.746;9.174;2023-08-01T08:24:54;17.10;99.90
9915;DHT22;4996;48.746;9.174;2023-08-01T08:27:19;17.10;99.90
9915;DHT22;4996;48.746;9.174;2023-08-01T08:29:45;17.30;99.90
9915;DHT22;4996;48.746;9.174;2023-08-01T08:32:10;17.20;99.90
9915;DHT22;4996;48.746;9.174;2023-08-01T08:34:36;17.20;99.90
9915;DHT22;4996;48.746;9.174;2023-08-01T08:37:01;17.20;99.90
9915;DHT22;4996;48.746;9.174;2023-08-01T08:39:27;17.30;99.90
9915;DHT22;4996;48.746;9.174;2023-08-01T08:41:53;17.30;99.90
9915;DHT22;4996;48.746;9.174;2023-08-01T08:44:19;17.40;99.90
9915;DHT22;4996;48.746;9.174;2023-08-01T08:46:55;17.20;99.90
9915;DHT22;4996;48.746;9.174;2023-08-01T08:49:23;17.50;99.90
9915;DHT22;4996;48.746;9.174;2023-08-01T08:51:49;17.60;99.90
9915;DHT22;4996;48.746;9.174;2023-08-01T08:54:16;17.70;99.90
9915;DHT22;4996;48.746;9.174;2023-08-01T08:56:42;17.80;99.90
9915;DHT22;4996;48.746;9.174;2023-08-01T08:59:08;17.80;99.90
9915;DHT22;4996;48.746;9.174;2023-08-01T09:01:38;18.10;99.90
9915;DHT22;4996;48.746;9.174;2023-08-01T09:04:04;18.40;99.90
9915;DHT22;4996;48.746;9.174;2023-08-01T09:06:40;18.40;99.90
9915;DHT22;4996;48.746;9.174;2023-08-01T09:09:11;18.50;99.90
9915;DHT22;4996;48.746;9.174;2023-08-01T09:11:42;18.50;99.90
9915;DHT22;4996;48.746;9.174;2023-08-01T09:14:09;18.40;99.90
9915;DHT22;4996;48.746;9.174;2023-08-01T09:16:35;18.40;99.90
9915;DHT22;4996;48.746;9.174;2023-08-01T09:19:01;18.40;99.90
9915;DHT22;4996;48.746;9.174;2023-08-01T09:21:30;18.30;99.90
9915;DHT22;4996;48.746;9.174;2023-08-01T09:23:58;18.20;99.90
9915;DHT22;4996;48.746;9.174;2023-08-01T09:26:32;18.30;99.90
9915;DHT22;4996;48.746;9.174;2023-08-01T09:28:58;18.40;99.90
9915;DHT22;4996;48.746;9.174;2023-08-01T09:31:34;18.60;99.90
9915;DHT22;4996;48.746;9.174;2023-08-01T09:34:01;18.70;99.90
9915;DHT22;4996;48.746;9.174;2023-08-01T09:36:30;18.80;99.90
9915;DHT22;4996;48.746;9.174;2023-08-01T09:39:00;18.80;99.90
9915;DHT22;4996;48.746;9.174;2023-08-01T09:41:26;18.80;99.90
9915;DHT22;4996;48.746;9.174;2023-08-01T09:43:52;18.80;99.90
9915;DHT22;4996;48.746;9.174;2023-08-01T09:46:17;19.20;99.90
9915;DHT22;4996;48.746;9.174;2023-08-01T09:48:43;19.20;99.90
9915;DHT22;4996;48.746;9.174;2023-08-01T09:51:13;19.20;99.90
9915;DHT22;4996;48.746;9.174;2023-08-01T09:53:56;19.20;99.90
9915;DHT22;4996;48.746;9.174;2023-08-01T09:56:26;19.50;99.90
9915;DHT22;4996;48.746;9.174;2023-08-01T09:58:54;19.50;99.90
9915;DHT22;4996;48.746;9.174;2023-08-01T10:01:22;19.30;99.90
9915;DHT22;4996;48.746;9.174;2023-08-01T10:03:52;19.40;99.90
9915;DHT22;4996;48.746;9.174;2023-08-01T10:06:22;19.50;99.90
9915;DHT22;4996;48.746;9.174;2023-08-01T10:08:49;19.70;99.90
9915;DHT22;4996;48.746;9.174;2023-08-01T10:11:17;19.50;99.90
9915;DHT22;4996;48.746;9.174;2023-08-01T10:13:43;19.30;99.90
9915;DHT22;4996;48.746;9.174;2023-08-01T10:16:10;19.50;99.90
9915;DHT22;4996;48.746;9.174;2023-08-01T10:18:37;19.60;99.90
9915;DHT22;4996;48.746;9.174;2023-08-01T10:21:04;19.60;99.90
9915;DHT22;4996;48.746;9.174;2023-08-01T10:23:32;19.80;99.90
9915;DHT22;4996;48.746;9.174;2023-08-01T10:25:59;20.20;99.90
9915;DHT22;4996;48.746;9.174;2023-08-01T10:28:39;20.20;99.90
9915;DHT22;4996;48.746;9.174;2023-08-01T10:31:08;20.40;99.90
9915;DHT22;4996;48.746;9.174;2023-08-01T10:33:34;20.40;99.90
9915;DHT22;4996;48.746;9.174;2023-08-01T10:36:00;20.30;99.90
9915;DHT22;4996;48.746;9.174;2023-08-01T10:38:26;20.40;99.90
9915;DHT22;4996;48.746;9.174;2023-08-01T10:40:51;20.60;99.90
9915;DHT22;4996;48.746;9.174;2023-08-01T10:43:24;20.90;99.90
9915;DHT22;4996;48.746;9.174;2023-08-01T10:46:05;21.00;99.90
9915;DHT22;4996;48.746;9.174;2023-08-01T10:48:30;20.90;99.90
9915;DHT22;4996;48.746;9.174;2023-08-01T10:50:57;21.30;99.90
9915;DHT22;4996;48.746;9.174;2023-08-01T10:53:22;21.60;99.90
9915;DHT22;4996;48.746;9.174;2023-08-01T10:55:48;21.50;99.90
9915;DHT22;4996;48.746;9.174;2023-08-01T10:58:15;21.80;99.90
9915;DHT22;4996;48.746;9.174;2023-08-01T11:00:42;21.60;99.90
9915;DHT22;4996;48.746;9.174;2023-08-01T11:03:08;21.50;99.90
9915;DHT22;4996;48.746;9.174;2023-08-01T11:05:33;21.30;99.90
9915;DHT22;4996;48.746;9.174;2023-08-01T11:08:00;21.10;99.90
9915;DHT22;4996;48.746;9.174;2023-08-01T11:10:27;21.10;99.90
9915;DHT22;4996;48.746;9.174;2023-08-01T11:12:54;21.20;99.90
9915;DHT22;4996;48.746;9.174;2023-08-01T11:15:20;21.20;99.90
9915;DHT22;4996;48.746;9.174;2023-08-01T11:17:55;21.50;99.90
9915;DHT22;4996;48.746;9.174;2023-08-01T11:20:23;21.60;99.90
9915;DHT22;4996;48.746;9.174;2023-08-01T11:22:57;21.90;99.90
9915;DHT22;4996;48.746;9.174;2023-08-01T11:25:40;22.30;99.90
9915;DHT22;4996;48.746;9.174;2023-08-01T11:28:08;22.00;99.90
9915;DHT22;4996;48.746;9.174;2023-08-01T11:30:34;22.10;99.90
9915;DHT22;4996;48.746;9.174;2023-08-01T11:33:00;22.80;99.90
9915;DHT22;4996;48.746;9.174;2023-08-01T11:35:28;23.30;99.90
9915;DHT22;4996;48.746;9.174;2023-08-01T11:37:54;23.40;99.90
9915;DHT22;4996;48.746;9.174;2023-08-01T11:40:20;23.70;99.90
9915;DHT22;4996;48.746;9.174;2023-08-01T11:42:56;24.20;99.90
9915;DHT22;4996;48.746;9.174;2023-08-01T11:45:22;24.50;99.90
9915;DHT22;4996;48.746;9.174;2023-08-01T11:47:47;24.90;99.90
9915;DHT22;4996;48.746;9.174;2023-08-01T11:50:14;24.50;99.90
9915;DHT22;4996;48.746;9.174;2023-08-01T11:52:39;24.60;99.90
9915;DHT22;4996;48.746;9.174;2023-08-01T11:55:05;24.20;99.90
9915;DHT22;4996;48.746;9.174;2023-08-01T11:57:31;24.20;99.90
9915;DHT22;4996;48.746;9.174;2023-08-01T11:59:56;24.70;99.90
9915;DHT22;4996;48.746;9.174;2023-08-01T12:02:25;25.00;99.90
9915;DHT22;4996;48.746;9.174;2023-08-01T12:04:52;25.40;99.90
9915;DHT22;4996;48.746;9.174;2023-08-01T12:07:18;25.20;99.90
9915;DHT22;4996;48.746;9.174;2023-08-01T12:09:55;25.40;99.90
9915;DHT22;4996;48.746;9.174;2023-08-01T12:12:21;25.90;99.90
9915;DHT22;4996;48.746;9.174;2023-08-01T12:14:47;25.90;99.90
9915;DHT22;4996;48.746;9.174;2023-08-01T12:17:12;25.30;99.90
9915;DHT22;4996;48.746;9.174;2023-08-01T12:19:38;25.00;99.90
9915;DHT22;4996;48.746;9.174;2023-08-01T12:22:03;24.40;99.90
9915;DHT22;4996;48.746;9.174;2023-08-01T12:24:29;24.50;99.90
9915;DHT22;4996;48.746;9.174;2023-08-01T12:26:55;24.40;99.90
9915;DHT22;4996;48.746;9.174;2023-08-01T12:29:20;24.90;99.90
9915;DHT22;4996;48.746;9.174;2023-08-01T12:31:46;25.10;99.90
9915;DHT22;4996;48.746;9.174;2023-08-01T12:34:11;25.50;99.90
9915;DHT22;4996;48.746;9.174;2023-08-01T12:36:37;25.90;99.90
9915;DHT22;4996;48.746;9.174;2023-08-01T12:39:02;26.10;99.90
9915;DHT22;4996;48.746;9.174;2023-08-01T12:41:28;26.40;99.90
9915;DHT22;4996;48.746;9.174;2023-08-01T12:43:54;26.70;99.90
9915;DHT22;4996;48.746;9.174;2023-08-01T12:46:19;27.00;99.90
9915;DHT22;4996;48.746;9.174;2023-08-01T12:48:45;27.00;99.50
9915;DHT22;4996;48.746;9.174;2023-08-01T12:51:12;26.70;99.30
9915;DHT22;4996;48.746;9.174;2023-08-01T12:53:39;26.60;99.10
9915;DHT22;4996;48.746;9.174;2023-08-01T12:56:05;26.60;98.40
9915;DHT22;4996;48.746;9.174;2023-08-01T12:58:31;26.10;98.60
9915;DHT22;4996;48.746;9.174;2023-08-01T13:00:57;25.90;99.20
9915;DHT22;4996;48.746;9.174;2023-08-01T13:03:22;26.30;98.20
9915;DHT22;4996;48.746;9.174;2023-08-01T13:05:48;26.70;97.80
9915;DHT22;4996;48.746;9.174;2023-08-01T13:08:13;27.20;97.10
9915;DHT22;4996;48.746;9.174;2023-08-01T13:10:39;27.60;96.10
9915;DHT22;4996;48.746;9.174;2023-08-01T13:13:05;27.90;93.80
9915;DHT22;4996;48.746;9.174;2023-08-01T13:15:31;27.30;94.60
9915;DHT22;4996;48.746;9.174;2023-08-01T13:17:56;27.10;95.10
9915;DHT22;4996;48.746;9.174;2023-08-01T13:20:22;27.10;95.50
9915;DHT22;4996;48.746;9.174;2023-08-01T13:22:49;27.10;93.90
9915;DHT22;4996;48.746;9.174;2023-08-01T13:25:15;26.80;93.60
9915;DHT22;4996;48.746;9.174;2023-08-01T13:27:41;26.70;94.10
9915;DHT22;4996;48.746;9.174;2023-08-01T13:30:07;27.00;93.80
9915;DHT22;4996;48.746;9.174;2023-08-01T13:32:33;27.20;93.30
9915;DHT22;4996;48.746;9.174;2023-08-01T13:34:59;27.10;93.80
9915;DHT22;4996;48.746;9.174;2023-08-01T13:37:24;26.70;93.40
9915;DHT22;4996;48.746;9.174;2023-08-01T13:39:50;26.40;93.70
9915;DHT22;4996;48.746;9.174;2023-08-01T13:42:15;26.20;94.50
9915;DHT22;4996;48.746;9.174;2023-08-01T13:44:41;25.80;94.40
9915;DHT22;4996;48.746;9.174;2023-08-01T13:47:07;25.40;95.20
9915;DHT22;4996;48.746;9.174;2023-08-01T13:49:33;25.30;96.10
9915;DHT22;4996;48.746;9.174;2023-08-01T13:51:59;25.10;96.20
9915;DHT22;4996;48.746;9.174;2023-08-01T13:54:25;24.80;96.50
9915;DHT22;4996;48.746;9.174;2023-08-01T13:56:51;24.50;97.30
9915;DHT22;4996;48.746;9.174;2023-08-01T13:59:17;24.30;96.70
9915;DHT22;4996;48.746;9.174;2023-08-01T14:01:42;24.10;97.40
9915;DHT22;4996;48.746;9.174;2023-08-01T14:04:08;23.80;98.00
9915;DHT22;4996;48.746;9.174;2023-08-01T14:06:33;23.40;97.70
9915;DHT22;4996;48.746;9.174;2023-08-01T14:08:59;23.60;98.20
9915;DHT22;4996;48.746;9.174;2023-08-01T14:11:24;23.60;98.30
9915;DHT22;4996;48.746;9.174;2023-08-01T14:13:50;23.30;97.80
9915;DHT22;4996;48.746;9.174;2023-08-01T14:16:15;23.30;98.10
9915;DHT22;4996;48.746;9.174;2023-08-01T14:18:42;23.20;98.10
9915;DHT22;4996;48.746;9.174;2023-08-01T14:21:09;23.20;98.20
9915;DHT22;4996;48.746;9.174;2023-08-01T14:23:34;23.30;98.70
9915;DHT22;4996;48.746;9.174;2023-08-01T14:26:02;23.50;99.60
9915;DHT22;4996;48.746;9.174;2023-08-01T14:28:27;23.60;98.20
9915;DHT22;4996;48.746;9.174;2023-08-01T14:30:53;23.40;97.80
9915;DHT22;4996;48.746;9.174;2023-08-01T14:33:18;23.60;98.50
9915;DHT22;4996;48.746;9.174;2023-08-01T14:35:46;23.70;96.90
9915;DHT22;4996;48.746;9.174;2023-08-01T14:38:11;23.80;96.90
9915;DHT22;4996;48.746;9.174;2023-08-01T14:40:37;23.80;96.20
9915;DHT22;4996;48.746;9.174;2023-08-01T14:43:04;23.70;96.60
9915;DHT22;4996;48.746;9.174;2023-08-01T14:45:30;23.40;96.60
9915;DHT22;4996;48.746;9.174;2023-08-01T14:47:55;23.30;96.40
9915;DHT22;4996;48.746;9.174;2023-08-01T14:50:21;23.60;96.40
9915;DHT22;4996;48.746;9.174;2023-08-01T14:52:47;23.60;94.90
9915;DHT22;4996;48.746;9.174;2023-08-01T14:55:12;23.70;95.30
9915;DHT22;4996;48.746;9.174;2023-08-01T14:57:38;23.70;94.90
9915;DHT22;4996;48.746;9.174;2023-08-01T15:00:03;23.70;95.90
9915;DHT22;4996;48.746;9.174;2023-08-01T15:02:29;23.70;96.10
9915;DHT22;4996;48.746;9.174;2023-08-01T15:04:56;23.60;96.10
9915;DHT22;4996;48.746;9.174;2023-08-01T15:07:23;23.40;95.30
9915;DHT22;4996;48.746;9.174;2023-08-01T15:09:50;23.50;95.60
9915;DHT22;4996;48.746;9.174;2023-08-01T15:12:16;23.60;96.10
9915;DHT22;4996;48.746;9.174;2023-08-01T15:14:42;23.40;96.60
9915;DHT22;4996;48.746;9.174;2023-08-01T15:17:08;23.50;96.60
9915;DHT22;4996;48.746;9.174;2023-08-01T15:19:35;23.60;96.60
9915;DHT22;4996;48.746;9.174;2023-08-01T15:22:01;23.70;96.50
9915;DHT22;4996;48.746;9.174;2023-08-01T15:24:26;23.70;97.00
9915;DHT22;4996;48.746;9.174;2023-08-01T15:26:52;23.70;97.00
9915;DHT22;4996;48.746;9.174;2023-08-01T15:29:17;23.80;96.80
9915;DHT22;4996;48.746;9.174;2023-08-01T15:31:43;23.90;97.10
9915;DHT22;4996;48.746;9.174;2023-08-01T15:34:08;23.70;97.30
9915;DHT22;4996;48.746;9.174;2023-08-01T15:36:34;23.50;97.00
9915;DHT22;4996;48.746;9.174;2023-08-01T15:39:00;23.40;97.60
9915;DHT22;4996;48.746;9.174;2023-08-01T15:41:26;23.60;97.60
9915;DHT22;4996;48.746;9.174;2023-08-01T15:43:52;23.50;97.60
9915;DHT22;4996;48.746;9.174;2023-08-01T15:46:17;23.20;97.80
9915;DHT22;4996;48.746;9.174;2023-08-01T15:48:43;23.30;97.40
9915;DHT22;4996;48.746;9.174;2023-08-01T15:51:08;23.20;96.80
9915;DHT22;4996;48.746;9.174;2023-08-01T15:53:34;23.30;96.60
9915;DHT22;4996;48.746;9.174;2023-08-01T15:56:07;23.30;96.60